sensor_id;sensor_type;location;lat;lon;timestamp;temperature;humidity
11304;DHT22;5707;49.588;12.148;2024-02-23T00:00:01;7.60;99.90
11304;DHT22;5707;49.588;12.148;2024-02-23T00:02:31;7.50;99.90
11304;DHT22;5707;49.588;12.148;2024-02-23T00:04:56;7.50;99.90
11304;DHT22;5707;49.588;12.148;2024-02-23T00:07:22;7.50;99.90
11304;DHT22;5707;49.588;12.148;2024-02-23T00:09:47;7.40;99.90
11304;DHT22;5707;49.588;12.148;2024-02-23T00:12:13;7.50;99.90
11304;DHT22;5707;49.588;12.148;2024-02-23T00:14:39;7.50;99.90
11304;DHT22;5707;49.588;12.148;2024-02-23T00:17:05;7.50;99.90
11304;DHT22;5707;49.588;12.148;2024-02-23T00:19:31;7.40;99.90
11304;DHT22;5707;49.588;12.148;2024-02-23T00:21:56;7.40;99.90
11304;DHT22;5707;49.588;12.148;2024-02-23T00:24:27;7.40;99.90
11304;DHT22;5707;49.588;12.148;2024-02-23T00:26:53;7.30;99.90
11304;DHT22;5707;49.588;12.148;2024-02-23T00:29:19;7.20;99.90
11304;DHT22;5707;49.588;12.148;2024-02-23T00:31:44;7.20;99.90
11304;DHT22;5707;49.588;12.148;2024-02-23T00:34:13;7.20;99.90
11304;DHT22;5707;49.588;12.148;2024-02-23T00:36:40;7.20;99.90
11304;DHT22;5707;49.588;12.148;2024-02-23T00:39:06;7.20;99.90
11304;DHT22;5707;49.588;12.148;2024-02-23T00:41:35;7.30;99.90
11304;DHT22;5707;49.588;12.148;2024-02-23T00:44:05;7.20;99.90
11304;DHT22;5707;49.588;12.148;2024-02-23T00:46:30;7.20;99.90
11304;DHT22;5707;49.588;12.148;2024-02-23T00:48:56;7.20;99.90
11304;DHT22;5707;49.588;12.148;2024-02-23T00:51:22;7.20;99.90
11304;DHT22;5707;49.588;12.148;2024-02-23T00:53:48;7.20;99.90
11304;DHT22;5707;49.588;12.148;2024-02-23T00:56:13;7.20;99.90
11304;DHT22;5707;49.588;12.148;2024-02-23T00:58:39;7.20;99.90
11304;DHT22;5707;49.588;12.148;2024-02-23T01:01:05;7.20;99.90
11304;DHT22;5707;49.588;12.148;2024-02-23T01:03:30;7.10;99.90
11304;DHT22;5707;49.588;12.148;2024-02-23T01:05:56;7.10;99.90
11304;DHT22;5707;49.588;12.148;2024-02-23T01:08:22;7.00;99.90
11304;DHT22;5707;49.588;12.148;2024-02-23T01:10:47;7.00;99.90
11304;DHT22;5707;49.588;12.148;2024-02-23T01:13:13;6.90;99.90
11304;DHT22;5707;49.588;12.148;2024-02-23T01:15:39;6.90;99.90
11304;DHT22;5707;49.588;12.148;2024-02-23T01:18:04;6.90;99.90
11304;DHT22;5707;49.588;12.148;2024-02-23T01:20:33;7.10;99.90
11304;DHT22;5707;49.588;12.148;2024-02-23T01:22:58;7.10;99.90
11304;DHT22;5707;49.588;12.148;2024-02-23T01:25:24;7.10;99.90
11304;DHT22;5707;49.588;12.148;2024-02-23T01:27:49;7.10;99.90
11304;DHT22;5707;49.588;12.148;2024-02-23T01:30:15;7.00;99.90
11304;DHT22;5707;49.588;12.148;2024-02-23T01:32:41;7.00;99.90
11304;DHT22;5707;49.588;12.148;2024-02-23T01:35:07;6.90;99.90
11304;DHT22;5707;49.588;12.148;2024-02-23T01:37:34;6.90;99.90
11304;DHT22;5707;49.588;12.148;2024-02-23T01:40:00;6.90;99.90
11304;DHT22;5707;49.588;12.148;2024-02-23T01:42:26;6.90;99.90
11304;DHT22;5707;49.588;12.148;2024-02-23T01:44:52;6.90;99.90
11304;DHT22;5707;49.588;12.148;2024-02-23T01:47:18;7.00;99.90
11304;DHT22;5707;49.588;12.148;2024-02-23T01:49:45;7.00;99.90
11304;DHT22;5707;49.588;12.148;2024-02-23T01:52:13;7.00;99.90
11304;DHT22;5707;49.588;12.148;2024-02-23T01:54:39;7.00;99.90
11304;DHT22;5707;49.588;12.148;2024-02-23T01:57:06;7.00;99.90
11304;DHT22;5707;49.588;12.148;2024-02-23T01:59:32;7.00;99.90
11304;DHT22;5707;49.588;12.148;2024-02-23T02:01:58;7.00;99.90
11304;DHT22;5707;49.588;12.148;2024-02-23T02:04:23;6.90;99.90
11304;DHT22;5707;49.588;12.148;2024-02-23T02:06:49;6.70;99.90
11304;DHT22;5707;49.588;12.148;2024-02-23T02:09:14;6.70;99.90
11304;DHT22;5707;49.588;12.148;2024-02-23T02:11:47;6.60;99.90
11304;DHT22;5707;49.588;12.148;2024-02-23T02:14:13;6.60;99.90
11304;DHT22;5707;49.588;12.148;2024-02-23T02:16:39;6.50;99.90
11304;DHT22;5707;49.588;12.148;2024-02-23T02:19:05;6.50;99.90
11304;DHT22;5707;49.588;12.148;2024-02-23T02:21:32;6.40;99.90
11304;DHT22;5707;49.588;12.148;2024-02-23T02:23:57;6.40;99.90
11304;DHT22;5707;49.588;12.148;2024-02-23T02:26:26;6.30;99.90
11304;DHT22;5707;49.588;12.148;2024-02-23T02:28:51;6.30;99.90
11304;DHT22;5707;49.588;12.148;2024-02-23T02:31:18;6.30;99.90
11304;DHT22;5707;49.588;12.148;2024-02-23T02:33:43;6.20;99.90
11304;DHT22;5707;49.588;12.148;2024-02-23T02:36:09;6.20;99.90
11304;DHT22;5707;49.588;12.148;2024-02-23T02:38:35;6.10;99.90
11304;DHT22;5707;49.588;12.148;2024-02-23T02:41:01;6.10;99.90
11304;DHT22;5707;49.588;12.148;2024-02-23T02:43:27;6.10;99.90
11304;DHT22;5707;49.588;12.148;2024-02-23T02:45:52;6.00;99.90
11304;DHT22;5707;49.588;12.148;2024-02-23T02:48:18;5.90;99.90
11304;DHT22;5707;49.588;12.148;2024-02-23T02:50:44;5.80;99.90
11304;DHT22;5707;49.588;12.148;2024-02-23T02:53:10;5.70;99.90
11304;DHT22;5707;49.588;12.148;2024-02-23T02:55:36;5.70;99.90
11304;DHT22;5707;49.588;12.148;2024-02-23T02:58:02;5.60;99.90
11304;DHT22;5707;49.588;12.148;2024-02-23T03:00:28;5.60;99.90
11304;DHT22;5707;49.588;12.148;2024-02-23T03:02:54;5.50;99.90
11304;DHT22;5707;49.588;12.148;2024-02-23T03:05:19;5.50;99.90
11304;DHT22;5707;49.588;12.148;2024-02-23T03:07:45;5.50;99.90
11304;DHT22;5707;49.588;12.148;2024-02-23T03:10:10;5.40;99.90
11304;DHT22;5707;49.588;12.148;2024-02-23T03:12:36;5.40;99.90
11304;DHT22;5707;49.588;12.148;2024-02-23T03:15:02;5.50;99.90
11304;DHT22;5707;49.588;12.148;2024-02-23T03:17:28;5.50;99.90
11304;DHT22;5707;49.588;12.148;2024-02-23T03:19:54;5.50;99.90
11304;DHT22;5707;49.588;12.148;2024-02-23T03:22:19;5.40;99.90
11304;DHT22;5707;49.588;12.148;2024-02-23T03:24:45;5.40;99.90
11304;DHT22;5707;49.588;12.148;2024-02-23T03:27:10;5.40;99.90
11304;DHT22;5707;49.588;12.148;2024-02-23T03:29:38;5.30;99.90
11304;DHT22;5707;49.588;12.148;2024-02-23T03:32:04;5.30;99.90
11304;DHT22;5707;49.588;12.148;2024-02-23T03:34:29;5.20;99.90
11304;DHT22;5707;49.588;12.148;2024-02-23T03:36:55;5.20;99.90
11304;DHT22;5707;49.588;12.148;2024-02-23T03:39:21;5.10;99.90
11304;DHT22;5707;49.588;12.148;2024-02-23T03:41:46;5.10;99.90
11304;DHT22;5707;49.588;12.148;2024-02-23T03:44:12;5.00;99.90
11304;DHT22;5707;49.588;12.148;2024-02-23T03:46:37;5.00;99.90
11304;DHT22;5707;49.588;12.148;2024-02-23T03:49:03;4.90;99.90
11304;DHT22;5707;49.588;12.148;2024-02-23T03:51:28;4.90;99.90
11304;DHT22;5707;49.588;12.148;2024-02-23T03:53:54;4.90;99.90
11304;DHT22;5707;49.588;12.148;2024-02-23T03:56:20;4.90;99.90
11304;DHT22;5707;49.588;12.148;2024-02-23T03:58:45;4.90;99.90
11304;DHT22;5707;49.588;12.148;2024-02-23T04:01:11;4.90;99.90
11304;DHT22;5707;49.588;12.148;2024-02-23T04:03:36;5.00;99.90
11304;DHT22;5707;49.588;12.148;2024-02-23T04:06:02;5.10;99.90
11304;DHT22;5707;49.588;12.148;2024-02-23T04:08:27;5.10;99.90
11304;DHT22;5707;49.588;12.148;2024-02-23T04:10:53;5.10;99.90
11304;DHT22;5707;49.588;12.148;2024-02-23T04:13:19;5.10;99.90
11304;DHT22;5707;49.588;12.148;2024-02-23T04:15:45;5.10;99.90
11304;DHT22;5707;49.588;12.148;2024-02-23T04:18:10;5.00;99.90
11304;DHT22;5707;49.588;12.148;2024-02-23T04:20:36;4.90;99.90
11304;DHT22;5707;49.588;12.148;2024-02-23T04:23:02;4.90;99.90
11304;DHT22;5707;49.588;12.148;2024-02-23T04:25:27;4.80;99.90
11304;DHT22;5707;49.588;12.148;2024-02-23T04:27:53;4.70;99.90
11304;DHT22;5707;49.588;12.148;2024-02-23T04:30:18;4.60;99.90
11304;DHT22;5707;49.588;12.148;2024-02-23T04:32:44;4.50;99.90
11304;DHT22;5707;49.588;12.148;2024-02-23T04:35:09;4.50;99.90
11304;DHT22;5707;49.588;12.148;2024-02-23T04:37:35;4.50;99.90
11304;DHT22;5707;49.588;12.148;2024-02-23T04:40:01;4.40;99.90
11304;DHT22;5707;49.588;12.148;2024-02-23T04:42:27;4.40;99.90
11304;DHT22;5707;49.588;12.148;2024-02-23T04:44:53;4.40;99.90
11304;DHT22;5707;49.588;12.148;2024-02-23T04:47:20;4.30;99.90
11304;DHT22;5707;49.588;12.148;2024-02-23T04:49:46;4.30;99.90
11304;DHT22;5707;49.588;12.148;2024-02-23T04:52:11;4.20;99.90
11304;DHT22;5707;49.588;12.148;2024-02-23T04:54:37;4.20;99.90
11304;DHT22;5707;49.588;12.148;2024-02-23T04:57:03;4.10;99.90
11304;DHT22;5707;49.588;12.148;2024-02-23T04:59:28;4.10;99.90
11304;DHT22;5707;49.588;12.148;2024-02-23T05:01:55;4.10;99.90
11304;DHT22;5707;49.588;12.148;2024-02-23T05:04:21;4.00;99.90
11304;DHT22;5707;49.588;12.148;2024-02-23T05:06:46;4.00;99.90
11304;DHT22;5707;49.588;12.148;2024-02-23T05:09:12;3.80;99.90
11304;DHT22;5707;49.588;12.148;2024-02-23T05:11:37;3.80;99.90
11304;DHT22;5707;49.588;12.148;2024-02-23T05:14:03;3.70;99.90
11304;DHT22;5707;49.588;12.148;2024-02-23T05:16:28;3.60;99.90
11304;DHT22;5707;49.588;12.148;2024-02-23T05:18:54;3.50;99.90
11304;DHT22;5707;49.588;12.148;2024-02-23T05:21:19;3.40;99.90
11304;DHT22;5707;49.588;12.148;2024-02-23T05:23:45;3.40;99.90
11304;DHT22;5707;49.588;12.148;2024-02-23T05:26:12;3.40;99.90
11304;DHT22;5707;49.588;12.148;2024-02-23T05:28:37;3.40;99.90
11304;DHT22;5707;49.588;12.148;2024-02-23T05:31:03;3.30;99.90
11304;DHT22;5707;49.588;12.148;2024-02-23T05:33:30;3.30;99.90
11304;DHT22;5707;49.588;12.148;2024-02-23T05:35:55;3.30;99.90
11304;DHT22;5707;49.588;12.148;2024-02-23T05:38:21;3.30;99.90
11304;DHT22;5707;49.588;12.148;2024-02-23T05:40:46;3.40;99.90
11304;DHT22;5707;49.588;12.148;2024-02-23T05:43:13;3.40;99.90
11304;DHT22;5707;49.588;12.148;2024-02-23T05:45:39;3.50;99.90
11304;DHT22;5707;49.588;12.148;2024-02-23T05:48:05;3.50;99.90
11304;DHT22;5707;49.588;12.148;2024-02-23T05:50:30;3.60;99.90
11304;DHT22;5707;49.588;12.148;2024-02-23T05:52:57;3.70;99.90
11304;DHT22;5707;49.588;12.148;2024-02-23T05:55:23;3.70;99.90
11304;DHT22;5707;49.588;12.148;2024-02-23T05:57:49;3.70;99.90
11304;DHT22;5707;49.588;12.148;2024-02-23T06:00:16;3.70;99.90
11304;DHT22;5707;49.588;12.148;2024-02-23T06:02:44;3.70;99.90
11304;DHT22;5707;49.588;12.148;2024-02-23T06:05:11;3.70;99.90
11304;DHT22;5707;49.588;12.148;2024-02-23T06:07:37;3.70;99.90
11304;DHT22;5707;49.588;12.148;2024-02-23T06:10:02;3.70;99.90
11304;DHT22;5707;49.588;12.148;2024-02-23T06:12:28;3.70;99.90
11304;DHT22;5707;49.588;12.148;2024-02-23T06:14:54;3.80;99.90
11304;DHT22;5707;49.588;12.148;2024-02-23T06:17:20;3.80;99.90
11304;DHT22;5707;49.588;12.148;2024-02-23T06:19:46;3.90;99.90
11304;DHT22;5707;49.588;12.148;2024-02-23T06:22:12;3.90;99.90
11304;DHT22;5707;49.588;12.148;2024-02-23T06:24:38;4.00;99.90
11304;DHT22;5707;49.588;12.148;2024-02-23T06:27:03;4.10;99.90
11304;DHT22;5707;49.588;12.148;2024-02-23T06:29:29;4.10;99.90
11304;DHT22;5707;49.588;12.148;2024-02-23T06:31:55;4.20;99.90
11304;DHT22;5707;49.588;12.148;2024-02-23T06:34:21;4.20;99.90
11304;DHT22;5707;49.588;12.148;2024-02-23T06:36:47;4.30;99.90
11304;DHT22;5707;49.588;12.148;2024-02-23T06:39:12;4.30;99.90
11304;DHT22;5707;49.588;12.148;2024-02-23T06:41:38;4.30;99.90
11304;DHT22;5707;49.588;12.148;2024-02-23T06:44:04;4.40;99.90
11304;DHT22;5707;49.588;12.148;2024-02-23T06:46:30;4.50;99.90
11304;DHT22;5707;49.588;12.148;2024-02-23T06:48:55;4.50;99.90
11304;DHT22;5707;49.588;12.148;2024-02-23T06:51:21;4.50;99.90
11304;DHT22;5707;49.588;12.148;2024-02-23T06:53:47;4.60;99.90
11304;DHT22;5707;49.588;12.148;2024-02-23T06:56:13;4.60;99.90
11304;DHT22;5707;49.588;12.148;2024-02-23T06:58:38;4.60;99.90
11304;DHT22;5707;49.588;12.148;2024-02-23T07:01:04;4.70;99.90
11304;DHT22;5707;49.588;12.148;2024-02-23T07:03:32;4.70;99.90
11304;DHT22;5707;49.588;12.148;2024-02-23T07:05:58;4.70;99.90
11304;DHT22;5707;49.588;12.148;2024-02-23T07:08:24;4.80;99.90
11304;DHT22;5707;49.588;12.148;2024-02-23T07:10:49;4.80;99.90
11304;DHT22;5707;49.588;12.148;2024-02-23T07:13:15;4.80;99.90
11304;DHT22;5707;49.588;12.148;2024-02-23T07:15:42;4.80;99.90
11304;DHT22;5707;49.588;12.148;2024-02-23T07:18:08;4.80;99.90
11304;DHT22;5707;49.588;12.148;2024-02-23T07:20:35;4.80;99.90
11304;DHT22;5707;49.588;12.148;2024-02-23T07:23:00;4.90;99.90
11304;DHT22;5707;49.588;12.148;2024-02-23T07:25:26;4.80;99.90
11304;DHT22;5707;49.588;12.148;2024-02-23T07:27:51;4.80;99.90
11304;DHT22;5707;49.588;12.148;2024-02-23T07:30:17;4.90;99.90
11304;DHT22;5707;49.588;12.148;2024-02-23T07:32:46;4.90;99.90
11304;DHT22;5707;49.588;12.148;2024-02-23T07:35:11;5.00;99.90
11304;DHT22;5707;49.588;12.148;2024-02-23T07:37:37;5.00;99.90
11304;DHT22;5707;49.588;12.148;2024-02-23T07:40:03;5.00;99.90
11304;DHT22;5707;49.588;12.148;2024-02-23T07:42:31;5.10;99.90
11304;DHT22;5707;49.588;12.148;2024-02-23T07:44:56;5.10;99.90
11304;DHT22;5707;49.588;12.148;2024-02-23T07:47:22;5.20;99.90
11304;DHT22;5707;49.588;12.148;2024-02-23T07:49:47;5.40;99.90
11304;DHT22;5707;49.588;12.148;2024-02-23T07:52:13;5.50;99.90
11304;DHT22;5707;49.588;12.148;2024-02-23T07:54:39;5.60;99.90
11304;DHT22;5707;49.588;12.148;2024-02-23T07:57:04;5.70;99.90
11304;DHT22;5707;49.588;12.148;2024-02-23T07:59:30;5.80;99.90
11304;DHT22;5707;49.588;12.148;2024-02-23T08:01:56;5.90;99.90
11304;DHT22;5707;49.588;12.148;2024-02-23T08:04:21;5.90;99.90
11304;DHT22;5707;49.588;12.148;2024-02-23T08:06:48;6.10;99.90
11304;DHT22;5707;49.588;12.148;2024-02-23T08:09:14;6.20;99.90
11304;DHT22;5707;49.588;12.148;2024-02-23T08:11:39;6.30;99.90
11304;DHT22;5707;49.588;12.148;2024-02-23T08:14:05;6.40;99.90
11304;DHT22;5707;49.588;12.148;2024-02-23T08:16:30;6.40;99.90
11304;DHT22;5707;49.588;12.148;2024-02-23T08:18:56;6.40;99.90
11304;DHT22;5707;49.588;12.148;2024-02-23T08:21:21;6.40;99.90
11304;DHT22;5707;49.588;12.148;2024-02-23T08:23:47;6.40;99.90
11304;DHT22;5707;49.588;12.148;2024-02-23T08:26:12;6.40;99.90
11304;DHT22;5707;49.588;12.148;2024-02-23T08:28:38;6.30;99.90
11304;DHT22;5707;49.588;12.148;2024-02-23T08:31:04;6.30;99.90
11304;DHT22;5707;49.588;12.148;2024-02-23T08:33:30;6.40;99.90
11304;DHT22;5707;49.588;12.148;2024-02-23T08:35:55;6.40;99.90
11304;DHT22;5707;49.588;12.148;2024-02-23T08:38:21;6.60;99.90
11304;DHT22;5707;49.588;12.148;2024-02-23T08:40:47;6.80;99.90
11304;DHT22;5707;49.588;12.148;2024-02-23T08:43:13;7.10;99.90
11304;DHT22;5707;49.588;12.148;2024-02-23T08:45:39;7.30;99.90
11304;DHT22;5707;49.588;12.148;2024-02-23T08:48:04;7.50;99.90
11304;DHT22;5707;49.588;12.148;2024-02-23T08:50:30;7.70;99.90
11304;DHT22;5707;49.588;12.148;2024-02-23T08:52:55;7.80;99.90
11304;DHT22;5707;49.588;12.148;2024-02-23T08:55:21;7.70;99.90
11304;DHT22;5707;49.588;12.148;2024-02-23T08:57:47;7.60;99.90
11304;DHT22;5707;49.588;12.148;2024-02-23T09:00:13;7.60;99.90
11304;DHT22;5707;49.588;12.148;2024-02-23T09:02:40;7.40;99.90
11304;DHT22;5707;49.588;12.148;2024-02-23T09:05:08;7.40;99.90
11304;DHT22;5707;49.588;12.148;2024-02-23T09:07:34;7.40;99.90
11304;DHT22;5707;49.588;12.148;2024-02-23T09:09:59;7.50;99.90
11304;DHT22;5707;49.588;12.148;2024-02-23T09:12:25;7.50;99.90
11304;DHT22;5707;49.588;12.148;2024-02-23T09:14:51;7.60;99.90
11304;DHT22;5707;49.588;12.148;2024-02-23T09:17:16;7.60;99.90
11304;DHT22;5707;49.588;12.148;2024-02-23T09:19:44;7.60;99.90
11304;DHT22;5707;49.588;12.148;2024-02-23T09:22:09;7.60;99.90
11304;DHT22;5707;49.588;12.148;2024-02-23T09:24:35;7.80;99.90
11304;DHT22;5707;49.588;12.148;2024-02-23T09:27:04;7.90;99.90
11304;DHT22;5707;49.588;12.148;2024-02-23T09:29:29;8.00;99.90
11304;DHT22;5707;49.588;12.148;2024-02-23T09:31:55;8.00;99.90
11304;DHT22;5707;49.588;12.148;2024-02-23T09:34:20;8.20;99.90
11304;DHT22;5707;49.588;12.148;2024-02-23T09:36:46;8.30;99.90
11304;DHT22;5707;49.588;12.148;2024-02-23T09:39:12;8.20;99.90
11304;DHT22;5707;49.588;12.148;2024-02-23T09:41:39;8.20;99.90
11304;DHT22;5707;49.588;12.148;2024-02-23T09:44:04;8.20;99.90
11304;DHT22;5707;49.588;12.148;2024-02-23T09:46:32;8.20;99.90
11304;DHT22;5707;49.588;12.148;2024-02-23T09:48:59;8.30;99.90
11304;DHT22;5707;49.588;12.148;2024-02-23T09:51:25;8.50;99.90
11304;DHT22;5707;49.588;12.148;2024-02-23T09:53:51;8.60;99.90
11304;DHT22;5707;49.588;12.148;2024-02-23T09:56:17;8.90;99.90
11304;DHT22;5707;49.588;12.148;2024-02-23T09:58:46;9.20;99.90
11304;DHT22;5707;49.588;12.148;2024-02-23T10:01:18;9.30;99.90
11304;DHT22;5707;49.588;12.148;2024-02-23T10:03:46;9.30;99.90
11304;DHT22;5707;49.588;12.148;2024-02-23T10:06:13;9.40;99.90
11304;DHT22;5707;49.588;12.148;2024-02-23T10:08:38;9.20;99.90
11304;DHT22;5707;49.588;12.148;2024-02-23T10:11:04;9.10;99.90
11304;DHT22;5707;49.588;12.148;2024-02-23T10:13:30;8.90;99.90
11304;DHT22;5707;49.588;12.148;2024-02-23T10:15:56;8.80;99.90
11304;DHT22;5707;49.588;12.148;2024-02-23T10:18:22;8.60;99.90
11304;DHT22;5707;49.588;12.148;2024-02-23T10:20:49;8.50;99.90
11304;DHT22;5707;49.588;12.148;2024-02-23T10:23:16;8.50;99.90
11304;DHT22;5707;49.588;12.148;2024-02-23T10:25:41;8.40;99.90
11304;DHT22;5707;49.588;12.148;2024-02-23T10:28:07;8.40;99.90
11304;DHT22;5707;49.588;12.148;2024-02-23T10:30:33;8.40;99.90
11304;DHT22;5707;49.588;12.148;2024-02-23T10:32:59;8.50;99.90
11304;DHT22;5707;49.588;12.148;2024-02-23T10:35:25;8.40;99.90
11304;DHT22;5707;49.588;12.148;2024-02-23T10:37:52;8.30;99.90
11304;DHT22;5707;49.588;12.148;2024-02-23T10:40:20;8.30;99.90
11304;DHT22;5707;49.588;12.148;2024-02-23T10:42:47;8.10;99.90
11304;DHT22;5707;49.588;12.148;2024-02-23T10:45:17;8.10;99.90
11304;DHT22;5707;49.588;12.148;2024-02-23T10:47:43;8.10;99.90
11304;DHT22;5707;49.588;12.148;2024-02-23T10:50:09;8.20;99.90
11304;DHT22;5707;49.588;12.148;2024-02-23T10:52:35;8.10;99.90
11304;DHT22;5707;49.588;12.148;2024-02-23T10:55:06;8.10;99.90
11304;DHT22;5707;49.588;12.148;2024-02-23T10:57:35;8.00;99.90
11304;DHT22;5707;49.588;12.148;2024-02-23T11:00:01;8.00;99.90
11304;DHT22;5707;49.588;12.148;2024-02-23T11:02:31;8.00;99.90
11304;DHT22;5707;49.588;12.148;2024-02-23T11:04:58;8.00;99.90
11304;DHT22;5707;49.588;12.148;2024-02-23T11:07:24;8.10;99.90
11304;DHT22;5707;49.588;12.148;2024-02-23T11:09:54;8.10;99.90
11304;DHT22;5707;49.588;12.148;2024-02-23T11:12:29;8.20;99.80
11304;DHT22;5707;49.588;12.148;2024-02-23T11:14:59;8.50;99.10
11304;DHT22;5707;49.588;12.148;2024-02-23T11:17:30;8.80;98.00
11304;DHT22;5707;49.588;12.148;2024-02-23T11:19:56;8.80;97.10
11304;DHT22;5707;49.588;12.148;2024-02-23T11:22:33;8.90;96.10
11304;DHT22;5707;49.588;12.148;2024-02-23T11:25:05;8.70;96.70
11304;DHT22;5707;49.588;12.148;2024-02-23T11:27:34;8.80;96.20
11304;DHT22;5707;49.588;12.148;2024-02-23T11:30:08;8.80;95.60
11304;DHT22;5707;49.588;12.148;2024-02-23T11:32:43;8.80;95.30
11304;DHT22;5707;49.588;12.148;2024-02-23T11:35:17;8.60;95.50
11304;DHT22;5707;49.588;12.148;2024-02-23T11:37:49;8.60;96.60
11304;DHT22;5707;49.588;12.148;2024-02-23T11:40:22;8.70;96.50
11304;DHT22;5707;49.588;12.148;2024-02-23T11:42:47;8.80;95.60
11304;DHT22;5707;49.588;12.148;2024-02-23T11:45:13;8.70;95.50
11304;DHT22;5707;49.588;12.148;2024-02-23T11:47:39;8.60;95.70
11304;DHT22;5707;49.588;12.148;2024-02-23T11:50:10;8.70;95.30
11304;DHT22;5707;49.588;12.148;2024-02-23T11:52:39;8.90;94.20
11304;DHT22;5707;49.588;12.148;2024-02-23T11:55:05;9.10;93.40
11304;DHT22;5707;49.588;12.148;2024-02-23T11:57:34;9.20;92.60
11304;DHT22;5707;49.588;12.148;2024-02-23T12:00:04;9.30;92.40
11304;DHT22;5707;49.588;12.148;2024-02-23T12:02:35;9.30;93.20
11304;DHT22;5707;49.588;12.148;2024-02-23T12:05:00;9.50;92.90
11304;DHT22;5707;49.588;12.148;2024-02-23T12:07:28;9.60;93.00
11304;DHT22;5707;49.588;12.148;2024-02-23T12:09:55;9.50;93.70
11304;DHT22;5707;49.588;12.148;2024-02-23T12:12:20;9.30;93.20
11304;DHT22;5707;49.588;12.148;2024-02-23T12:14:48;9.30;93.30
11304;DHT22;5707;49.588;12.148;2024-02-23T12:17:13;9.30;92.30
11304;DHT22;5707;49.588;12.148;2024-02-23T12:19:40;9.20;92.40
11304;DHT22;5707;49.588;12.148;2024-02-23T12:22:06;9.10;92.80
11304;DHT22;5707;49.588;12.148;2024-02-23T12:24:31;9.00;92.60
11304;DHT22;5707;49.588;12.148;2024-02-23T12:26:57;8.90;92.60
11304;DHT22;5707;49.588;12.148;2024-02-23T12:29:23;9.00;92.80
11304;DHT22;5707;49.588;12.148;2024-02-23T12:31:49;9.00;92.70
11304;DHT22;5707;49.588;12.148;2024-02-23T12:34:15;9.00;92.80
11304;DHT22;5707;49.588;12.148;2024-02-23T12:36:41;8.90;92.50
11304;DHT22;5707;49.588;12.148;2024-02-23T12:39:07;8.80;92.60
11304;DHT22;5707;49.588;12.148;2024-02-23T12:41:33;8.60;92.70
11304;DHT22;5707;49.588;12.148;2024-02-23T12:43:58;8.50;92.80
11304;DHT22;5707;49.588;12.148;2024-02-23T12:46:24;8.50;93.10
11304;DHT22;5707;49.588;12.148;2024-02-23T12:48:50;8.70;92.70
11304;DHT22;5707;49.588;12.148;2024-02-23T12:51:16;8.60;92.40
11304;DHT22;5707;49.588;12.148;2024-02-23T12:53:42;8.60;93.20
11304;DHT22;5707;49.588;12.148;2024-02-23T12:56:10;8.40;93.20
11304;DHT22;5707;49.588;12.148;2024-02-23T12:58:42;8.20;93.50
11304;DHT22;5707;49.588;12.148;2024-02-23T13:01:09;8.00;93.30
11304;DHT22;5707;49.588;12.148;2024-02-23T13:03:36;8.00;92.70
11304;DHT22;5707;49.588;12.148;2024-02-23T13:06:04;8.00;93.20
11304;DHT22;5707;49.588;12.148;2024-02-23T13:08:30;8.10;92.90
11304;DHT22;5707;49.588;12.148;2024-02-23T13:10:57;8.30;92.80
11304;DHT22;5707;49.588;12.148;2024-02-23T13:13:23;8.30;93.00
11304;DHT22;5707;49.588;12.148;2024-02-23T13:15:50;8.20;93.30
11304;DHT22;5707;49.588;12.148;2024-02-23T13:18:16;8.10;93.00
11304;DHT22;5707;49.588;12.148;2024-02-23T13:20:42;8.10;93.30
11304;DHT22;5707;49.588;12.148;2024-02-23T13:23:11;8.20;93.40
11304;DHT22;5707;49.588;12.148;2024-02-23T13:25:39;8.10;92.90
11304;DHT22;5707;49.588;12.148;2024-02-23T13:28:06;8.10;93.70
11304;DHT22;5707;49.588;12.148;2024-02-23T13:30:32;8.00;94.00
11304;DHT22;5707;49.588;12.148;2024-02-23T13:32:57;7.90;93.60
11304;DHT22;5707;49.588;12.148;2024-02-23T13:35:23;7.90;93.50
11304;DHT22;5707;49.588;12.148;2024-02-23T13:37:49;7.80;94.00
11304;DHT22;5707;49.588;12.148;2024-02-23T13:40:14;7.90;94.20
11304;DHT22;5707;49.588;12.148;2024-02-23T13:42:40;7.90;94.40
11304;DHT22;5707;49.588;12.148;2024-02-23T13:45:07;7.90;94.10
11304;DHT22;5707;49.588;12.148;2024-02-23T13:47:33;7.80;94.30
11304;DHT22;5707;49.588;12.148;2024-02-23T13:49:59;7.70;94.80
11304;DHT22;5707;49.588;12.148;2024-02-23T13:52:25;7.70;94.90
11304;DHT22;5707;49.588;12.148;2024-02-23T13:54:51;7.60;95.20
11304;DHT22;5707;49.588;12.148;2024-02-23T13:57:16;7.60;95.70
11304;DHT22;5707;49.588;12.148;2024-02-23T13:59:42;7.50;96.10
11304;DHT22;5707;49.588;12.148;2024-02-23T14:02:07;7.50;96.20
11304;DHT22;5707;49.588;12.148;2024-02-23T14:04:33;7.50;96.40
11304;DHT22;5707;49.588;12.148;2024-02-23T14:06:58;7.50;96.30
11304;DHT22;5707;49.588;12.148;2024-02-23T14:09:24;7.30;96.60
11304;DHT22;5707;49.588;12.148;2024-02-23T14:11:49;7.30;97.00
11304;DHT22;5707;49.588;12.148;2024-02-23T14:14:15;7.40;97.20
11304;DHT22;5707;49.588;12.148;2024-02-23T14:16:41;7.50;97.20
11304;DHT22;5707;49.588;12.148;2024-02-23T14:19:07;7.60;96.70
11304;DHT22;5707;49.588;12.148;2024-02-23T14:21:33;7.60;96.80
11304;DHT22;5707;49.588;12.148;2024-02-23T14:23:58;7.50;96.90
11304;DHT22;5707;49.588;12.148;2024-02-23T14:26:25;7.30;97.30
11304;DHT22;5707;49.588;12.148;2024-02-23T14:28:50;7.20;97.80
11304;DHT22;5707;49.588;12.148;2024-02-23T14:31:16;7.10;98.30
11304;DHT22;5707;49.588;12.148;2024-02-23T14:33:41;7.00;99.00
11304;DHT22;5707;49.588;12.148;2024-02-23T14:36:07;6.90;99.60
11304;DHT22;5707;49.588;12.148;2024-02-23T14:38:32;6.80;99.90
11304;DHT22;5707;49.588;12.148;2024-02-23T14:40:58;6.80;99.90
11304;DHT22;5707;49.588;12.148;2024-02-23T14:43:24;6.70;99.90
11304;DHT22;5707;49.588;12.148;2024-02-23T14:45:50;6.70;99.90
11304;DHT22;5707;49.588;12.148;2024-02-23T14:48:18;6.70;99.90
11304;DHT22;5707;49.588;12.148;2024-02-23T14:50:43;6.70;99.90
11304;DHT22;5707;49.588;12.148;2024-02-23T14:53:09;6.80;99.90
11304;DHT22;5707;49.588;12.148;2024-02-23T14:55:36;6.80;99.90
11304;DHT22;5707;49.588;12.148;2024-02-23T14:58:02;6.80;99.90
11304;DHT22;5707;49.588;12.148;2024-02-23T15:00:27;6.80;99.90
11304;DHT22;5707;49.588;12.148;2024-02-23T15:02:55;6.70;99.90
11304;DHT22;5707;49.588;12.148;2024-02-23T15:05:22;6.60;99.90
11304;DHT22;5707;49.588;12.148;2024-02-23T15:07:48;6.50;99.90
11304;DHT22;5707;49.588;12.148;2024-02-23T15:10:13;6.40;99.90
11304;DHT22;5707;49.588;12.148;2024-02-23T15:12:39;6.40;99.90
11304;DHT22;5707;49.588;12.148;2024-02-23T15:15:05;6.20;99.90
11304;DHT22;5707;49.588;12.148;2024-02-23T15:17:32;6.10;99.90
11304;DHT22;5707;49.588;12.148;2024-02-23T15:19:58;6.10;99.90
11304;DHT22;5707;49.588;12.148;2024-02-23T15:22:23;6.00;99.90
11304;DHT22;5707;49.588;12.148;2024-02-23T15:24:51;5.90;99.90
11304;DHT22;5707;49.588;12.148;2024-02-23T15:27:17;5.90;99.90
11304;DHT22;5707;49.588;12.148;2024-02-23T15:29:43;5.80;99.90
11304;DHT22;5707;49.588;12.148;2024-02-23T15:32:09;5.80;99.90
11304;DHT22;5707;49.588;12.148;2024-02-23T15:34:36;5.80;99.90
11304;DHT22;5707;49.588;12.148;2024-02-23T15:37:01;5.70;99.90